createdAt,value
2023-03-21T00:02:14.750Z,101958.53
2023-03-21T00:04:52.322Z,101951.00
2023-03-21T00:07:30.427Z,101952.66
2023-03-21T00:10:16.641Z,101941.41
2023-03-21T00:12:58.940Z,101938.81
2023-03-21T00:15:39.275Z,101948.25
2023-03-21T00:18:16.314Z,101946.91
2023-03-21T00:21:39.270Z,101940.44
2023-03-21T00:24:06.991Z,101939.97
2023-03-21T00:26:42.620Z,101942.25
2023-03-21T00:29:17.892Z,101940.75
2023-03-21T00:31:54.000Z,101940.81
2023-03-21T00:34:31.752Z,101947.72
2023-03-21T00:37:26.184Z,101938.97
2023-03-21T00:39:58.916Z,101949.47
2023-03-21T00:42:31.627Z,101941.66
2023-03-21T00:45:22.452Z,101944.16
2023-03-21T00:47:55.076Z,101937.66
2023-03-21T00:50:23.820Z,101936.06
2023-03-21T00:53:04.955Z,101941.34
2023-03-21T00:55:36.209Z,101937.16
2023-03-21T00:58:04.027Z,101924.09
2023-03-21T01:00:44.463Z,101922.38
2023-03-21T01:03:25.225Z,101913.69
2023-03-21T01:06:04.830Z,101914.97
2023-03-21T01:08:54.517Z,101917.88
2023-03-21T01:11:29.044Z,101909.38
2023-03-21T01:14:18.564Z,101909.28
2023-03-21T01:16:51.867Z,101904.69
2023-03-21T01:19:30.840Z,101906.09
2023-03-21T01:22:03.031Z,101900.03
2023-03-21T01:24:40.585Z,101908.97
2023-03-21T01:27:16.609Z,101906.16
2023-03-21T01:29:43.929Z,101896.53
2023-03-21T01:32:17.200Z,101902.66
2023-03-21T01:34:56.219Z,101892.44
2023-03-21T01:37:27.144Z,101886.22
2023-03-21T01:39:54.427Z,101888.16
2023-03-21T01:42:22.438Z,101881.44
2023-03-21T01:45:00.646Z,101888.09
2023-03-21T01:47:36.813Z,101889.06
2023-03-21T01:50:29.213Z,101875.13
2023-03-21T01:53:24.970Z,101865.91
2023-03-21T01:55:54.448Z,101870.75
2023-03-21T01:58:45.780Z,101872.53
2023-03-21T02:01:42.515Z,101860.94
2023-03-21T02:04:20.065Z,101858.34
2023-03-21T02:07:18.760Z,101867.03
2023-03-21T02:09:55.936Z,101846.22
2023-03-21T02:12:29.787Z,101845.13
2023-03-21T02:15:01.308Z,101842.84
2023-03-21T02:18:11.639Z,101846.38
2023-03-21T02:21:34.653Z,101842.38
2023-03-21T02:24:33.096Z,101843.97
2023-03-21T02:27:06.917Z,101832.72
2023-03-21T02:30:02.385Z,101830.19
2023-03-21T02:33:02.650Z,101833.38
2023-03-21T02:35:47.275Z,101834.25
2023-03-21T02:38:43.745Z,101821.44
2023-03-21T02:41:29.878Z,101822.41
2023-03-21T02:44:20.038Z,101812.03
2023-03-21T02:47:06.484Z,101810.94
2023-03-21T02:49:53.448Z,101811.63
2023-03-21T02:52:38.689Z,101799.69
2023-03-21T02:55:18.565Z,101801.41
2023-03-21T02:58:12.766Z,101800.59
2023-03-21T03:00:59.467Z,101804.72
2023-03-21T03:03:38.351Z,101793.38
2023-03-21T03:06:46.832Z,101784.38
2023-03-21T03:09:38.705Z,101784.91
2023-03-21T03:12:44.684Z,101786.59
2023-03-21T03:15:38.128Z,101782.72
2023-03-21T03:18:51.575Z,101781.06
2023-03-21T03:21:34.735Z,101770.69
2023-03-21T03:24:24.638Z,101767.22
2023-03-21T03:27:14.688Z,101761.56
2023-03-21T03:29:56.276Z,101754.47
2023-03-21T03:33:02.107Z,101764.09
2023-03-21T03:35:42.909Z,101755.09
2023-03-21T03:38:17.549Z,101755.25
2023-03-21T03:40:55.062Z,101756.06
2023-03-21T03:43:48.362Z,101752.00
2023-03-21T03:46:24.558Z,101750.09
2023-03-21T03:49:06.864Z,101755.66
2023-03-21T03:52:16.627Z,101751.84
2023-03-21T03:54:55.172Z,101751.31
2023-03-21T03:57:30.370Z,101754.50
2023-03-21T04:00:13.965Z,101750.00
2023-03-21T04:02:50.847Z,101750.50
2023-03-21T04:05:29.546Z,101757.53
2023-03-21T04:07:57.630Z,101758.22
2023-03-21T04:10:38.884Z,101753.00
2023-03-21T04:13:16.305Z,101760.03
2023-03-21T04:16:11.859Z,101751.66
2023-03-21T04:18:52.960Z,101749.84
2023-03-21T04:21:34.767Z,101750.69
2023-03-21T04:24:10.492Z,101750.78
2023-03-21T04:26:39.632Z,101753.56
2023-03-21T04:29:49.195Z,101750.59
2023-03-21T04:32:49.227Z,101750.59
2023-03-21T04:35:27.379Z,101761.00
2023-03-21T04:37:56.220Z,101762.16
2023-03-21T04:40:29.600Z,101756.06
2023-03-21T04:43:04.133Z,101758.56
2023-03-21T04:45:37.609Z,101746.13
2023-03-21T04:48:10.329Z,101747.75
2023-03-21T04:50:49.262Z,101753.63
2023-03-21T04:53:24.985Z,101746.78
2023-03-21T04:55:58.015Z,101740.47
2023-03-21T04:58:33.347Z,101740.63
2023-03-21T05:01:09.695Z,101732.53
2023-03-21T05:03:41.006Z,101732.53
2023-03-21T05:06:11.123Z,101736.66
2023-03-21T05:08:45.765Z,101741.03
2023-03-21T05:11:15.629Z,101730.50
2023-03-21T05:13:44.624Z,101734.94
2023-03-21T05:16:12.967Z,101735.97
2023-03-21T05:18:42.969Z,101734.13
2023-03-21T05:21:29.665Z,101736.91
2023-03-21T05:24:01.587Z,101727.50
2023-03-21T05:26:33.762Z,101730.81
2023-03-21T05:29:17.451Z,101739.50
2023-03-21T05:31:53.797Z,101742.19
2023-03-21T05:34:30.468Z,101730.06
2023-03-21T05:37:03.426Z,101734.41
2023-03-21T05:39:54.735Z,101739.28
2023-03-21T05:42:35.874Z,101737.84
2023-03-21T05:45:16.110Z,101742.31
2023-03-21T05:47:48.369Z,101747.59
2023-03-21T05:50:19.466Z,101744.88
2023-03-21T05:53:11.907Z,101754.19
2023-03-21T05:55:41.630Z,101753.38
2023-03-21T06:01:20.322Z,101757.84
2023-03-21T06:04:00.542Z,101756.91
2023-03-21T06:06:46.414Z,101757.06
2023-03-21T06:09:23.503Z,101753.94
2023-03-21T06:12:06.980Z,101751.72
2023-03-21T06:15:09.126Z,101750.53
2023-03-21T06:17:48.129Z,101745.22
2023-03-21T06:20:28.032Z,101751.56
2023-03-21T06:23:11.163Z,101760.63
2023-03-21T06:25:38.682Z,101763.47
2023-03-21T06:28:07.272Z,101769.66
2023-03-21T06:30:39.275Z,101773.63
2023-03-21T06:33:27.666Z,101776.63
2023-03-21T06:35:56.749Z,101774.13
2023-03-21T06:38:25.810Z,101786.88
2023-03-21T06:40:54.377Z,101791.47
2023-03-21T06:43:29.695Z,101786.44
2023-03-21T06:45:57.092Z,101781.44
2023-03-21T06:48:27.569Z,101775.28
2023-03-21T06:50:56.666Z,101782.78
2023-03-21T06:53:30.017Z,101785.50
2023-03-21T06:56:21.515Z,101777.66
2023-03-21T06:58:50.038Z,101782.25
2023-03-21T07:01:43.318Z,101782.44
2023-03-21T07:04:11.044Z,101787.59
2023-03-21T07:06:39.401Z,101780.19
2023-03-21T07:09:07.235Z,101783.75
2023-03-21T07:11:37.153Z,101781.00
2023-03-21T07:14:07.674Z,101780.94
2023-03-21T07:16:35.109Z,101787.41
2023-03-21T07:19:02.289Z,101786.69
2023-03-21T07:21:29.436Z,101786.00
2023-03-21T07:23:56.707Z,101795.13
2023-03-21T07:26:26.917Z,101790.41
2023-03-21T07:28:55.828Z,101793.38
2023-03-21T07:31:26.149Z,101795.81
2023-03-21T07:33:53.981Z,101797.16
2023-03-21T07:36:21.543Z,101794.41
2023-03-21T07:38:48.663Z,101802.03
2023-03-21T07:41:20.890Z,101801.94
2023-03-21T07:43:50.809Z,101800.00
2023-03-21T07:46:19.022Z,101793.25
2023-03-21T07:48:48.877Z,101796.78
2023-03-21T07:51:15.997Z,101793.53
2023-03-21T07:53:43.988Z,101795.38
2023-03-21T07:56:11.193Z,101806.00
2023-03-21T07:58:38.234Z,101799.94
2023-03-21T08:01:05.530Z,101798.66
2023-03-21T08:03:33.958Z,101801.00
2023-03-21T08:06:01.753Z,101795.59
2023-03-21T08:08:28.919Z,101793.06
2023-03-21T08:10:56.255Z,101788.91
2023-03-21T08:13:23.462Z,101789.13
2023-03-21T08:15:50.643Z,101792.44
2023-03-21T08:18:17.674Z,101787.56
2023-03-21T08:20:45.127Z,101793.34
2023-03-21T08:23:13.992Z,101804.66
2023-03-21T08:25:41.254Z,101796.28
2023-03-21T08:28:10.764Z,101805.44
2023-03-21T08:30:38.311Z,101815.09
2023-03-21T08:33:05.407Z,101808.91
2023-03-21T08:35:32.647Z,101808.06
2023-03-21T08:38:02.545Z,101806.16
2023-03-21T08:40:29.856Z,101814.22
2023-03-21T08:42:56.866Z,101802.72
2023-03-21T08:45:24.724Z,101807.03
2023-03-21T08:47:51.900Z,101813.88
2023-03-21T08:50:25.080Z,101818.81
2023-03-21T08:52:52.819Z,101809.53
2023-03-21T08:55:20.294Z,101815.81
2023-03-21T08:57:47.341Z,101808.13
2023-03-21T09:00:18.678Z,101813.44
2023-03-21T09:02:47.127Z,101820.75
2023-03-21T09:05:14.798Z,101817.44
2023-03-21T09:07:42.044Z,101817.28
2023-03-21T09:10:23.077Z,101816.53
2023-03-21T09:12:53.113Z,101816.78
2023-03-21T09:15:22.123Z,101815.06
2023-03-21T09:17:53.302Z,101817.50
2023-03-21T09:20:26.530Z,101818.75
2023-03-21T09:22:54.605Z,101808.44
2023-03-21T09:25:26.405Z,101813.59
2023-03-21T09:27:54.360Z,101817.97
2023-03-21T09:30:26.334Z,101807.25
2023-03-21T09:32:55.969Z,101806.50
2023-03-21T09:35:27.820Z,101804.94
2023-03-21T09:37:57.623Z,101800.72
2023-03-21T09:40:52.981Z,101790.13
2023-03-21T09:43:41.702Z,101791.97
2023-03-21T09:46:23.721Z,101793.81
2023-03-21T09:48:59.956Z,101788.38
2023-03-21T09:51:32.209Z,101792.03
2023-03-21T09:54:07.526Z,101796.59
2023-03-21T09:56:39.291Z,101792.25
2023-03-21T09:59:09.313Z,101791.47
2023-03-21T10:01:42.230Z,101793.88
2023-03-21T10:04:16.917Z,101789.63
2023-03-21T10:06:46.027Z,101789.84
2023-03-21T10:09:24.858Z,101791.44
2023-03-21T10:11:52.980Z,101796.84
2023-03-21T10:14:31.538Z,101801.78
2023-03-21T10:17:17.868Z,101796.59
2023-03-21T10:19:47.265Z,101802.78
2023-03-21T10:22:15.977Z,101791.47
2023-03-21T10:24:43.192Z,101805.44
2023-03-21T10:27:13.468Z,101802.84
2023-03-21T10:29:48.124Z,101802.22
2023-03-21T10:32:17.858Z,101807.53
2023-03-21T10:34:51.993Z,101807.44
2023-03-21T10:37:19.552Z,101803.72
2023-03-21T10:39:51.518Z,101812.75
2023-03-21T10:42:24.013Z,101815.78
2023-03-21T10:44:57.717Z,101813.16
2023-03-21T10:47:26.675Z,101804.81
2023-03-21T10:50:07.306Z,101798.59
2023-03-21T10:52:37.710Z,101807.81
2023-03-21T10:55:18.961Z,101788.06
2023-03-21T10:57:47.687Z,101784.38
2023-03-21T11:00:24.530Z,101789.66
2023-03-21T11:02:54.151Z,101796.53
2023-03-21T11:05:37.017Z,101800.84
2023-03-21T11:08:10.699Z,101804.34
2023-03-21T11:10:50.330Z,101785.09
2023-03-21T11:13:33.146Z,101780.06
2023-03-21T11:16:25.075Z,101787.81
2023-03-21T11:18:56.993Z,101783.66
2023-03-21T11:21:29.824Z,101781.94
2023-03-21T11:23:57.601Z,101797.19
2023-03-21T11:26:32.493Z,101783.09
2023-03-21T11:28:59.961Z,101785.81
2023-03-21T11:31:44.206Z,101788.22
2023-03-21T11:34:50.158Z,101784.50
2023-03-21T11:37:46.621Z,101775.97
2023-03-21T11:40:13.742Z,101784.59
2023-03-21T11:42:44.098Z,101778.97
2023-03-21T11:45:17.990Z,101775.91
2023-03-21T11:47:47.406Z,101773.47
2023-03-21T11:50:19.292Z,101782.91
2023-03-21T11:53:03.608Z,101776.53
2023-03-21T11:55:46.503Z,101782.38
2023-03-21T11:58:36.399Z,101779.22
2023-03-21T12:01:42.355Z,101772.72
2023-03-21T12:04:39.748Z,101776.03
2023-03-21T12:07:26.587Z,101763.31
2023-03-21T12:10:26.160Z,101762.00
2023-03-21T12:13:14.737Z,101755.78
2023-03-21T12:15:55.450Z,101770.13
2023-03-21T12:18:46.290Z,101758.47
2023-03-21T12:21:19.494Z,101767.47
2023-03-21T12:23:58.987Z,101764.22
2023-03-21T12:26:31.539Z,101759.88
2023-03-21T12:29:13.174Z,101759.00
2023-03-21T12:31:43.413Z,101749.28
2023-03-21T12:35:09.502Z,101742.41
2023-03-21T12:38:16.297Z,101748.66
2023-03-21T12:40:58.747Z,101752.19
2023-03-21T12:43:47.930Z,101746.06
2023-03-21T12:46:27.091Z,101745.19
2023-03-21T12:49:21.449Z,101740.72
2023-03-21T12:51:52.181Z,101741.63
2023-03-21T12:54:32.471Z,101744.28
2023-03-21T12:57:12.185Z,101738.06
2023-03-21T12:59:49.691Z,101735.44
2023-03-21T13:02:31.619Z,101717.81
2023-03-21T13:05:18.098Z,101719.63
2023-03-21T13:07:52.704Z,101725.84
2023-03-21T13:10:21.942Z,101705.59
2023-03-21T13:13:01.023Z,101695.03
2023-03-21T13:15:43.124Z,101695.94
2023-03-21T13:18:38.968Z,101709.13
2023-03-21T13:21:16.902Z,101705.25
2023-03-21T13:24:17.554Z,101692.06
2023-03-21T13:27:01.255Z,101702.50
2023-03-21T13:29:33.372Z,101690.19
2023-03-21T13:32:23.782Z,101692.22
2023-03-21T13:35:00.277Z,101693.94
2023-03-21T13:37:34.305Z,101699.19
2023-03-21T13:40:10.890Z,101701.63
2023-03-21T13:42:48.682Z,101700.81
2023-03-21T13:45:27.710Z,101702.72
2023-03-21T13:48:04.546Z,101698.50
2023-03-21T13:51:03.225Z,101682.72
2023-03-21T13:53:44.564Z,101676.56
2023-03-21T13:56:17.697Z,101675.56
2023-03-21T13:58:44.705Z,101674.63
2023-03-21T14:01:27.344Z,101668.44
2023-03-21T14:04:19.467Z,101667.75
2023-03-21T14:06:59.710Z,101674.53
2023-03-21T14:09:35.664Z,101675.41
2023-03-21T14:12:07.897Z,101672.13
2023-03-21T14:14:42.724Z,101673.00
2023-03-21T14:17:23.300Z,101669.34
2023-03-21T14:20:37.013Z,101672.50
2023-03-21T14:23:08.308Z,101683.75
2023-03-21T14:25:46.810Z,101678.50
2023-03-21T14:28:25.439Z,101667.16
2023-03-21T14:31:01.878Z,101679.22
2023-03-21T14:33:44.259Z,101673.91
2023-03-21T14:36:15.829Z,101669.38
2023-03-21T14:38:45.627Z,101678.66
2023-03-21T14:41:25.272Z,101666.50
2023-03-21T14:44:06.982Z,101666.69
2023-03-21T14:46:34.162Z,101656.00
2023-03-21T14:49:35.295Z,101648.16
2023-03-21T14:52:10.824Z,101648.41
2023-03-21T14:54:47.171Z,101656.53
2023-03-21T14:57:20.014Z,101649.06
2023-03-21T14:59:50.952Z,101638.00
2023-03-21T15:02:24.323Z,101644.94
2023-03-21T15:05:06.505Z,101645.50
2023-03-21T15:07:36.468Z,101647.19
2023-03-21T15:10:18.242Z,101649.16
2023-03-21T15:12:59.219Z,101635.28
2023-03-21T15:15:28.848Z,101633.59
2023-03-21T15:18:06.373Z,101637.50
2023-03-21T15:20:39.809Z,101628.06
2023-03-21T15:23:10.811Z,101631.66
2023-03-21T15:25:39.578Z,101626.25
2023-03-21T15:28:07.186Z,101624.28
2023-03-21T15:30:35.382Z,101614.84
2023-03-21T15:33:13.560Z,101606.06
2023-03-21T15:35:46.243Z,101599.34
2023-03-21T15:38:49.247Z,101601.69
2023-03-21T15:41:19.450Z,101618.09
2023-03-21T15:44:01.944Z,101633.34
2023-03-21T15:46:42.249Z,101608.06
2023-03-21T15:49:13.322Z,101613.94
2023-03-21T15:51:48.354Z,101616.19
2023-03-21T15:54:41.638Z,101615.28
2023-03-21T15:57:25.535Z,101610.22
2023-03-21T15:59:56.825Z,101605.81
2023-03-21T16:02:30.855Z,101612.84
2023-03-21T16:05:24.507Z,101608.78
2023-03-21T16:07:52.415Z,101613.94
2023-03-21T16:10:38.318Z,101611.22
2023-03-21T16:13:06.988Z,101628.41
2023-03-21T16:15:34.224Z,101630.34
2023-03-21T16:18:08.518Z,101625.34
2023-03-21T16:20:42.728Z,101634.78
2023-03-21T16:23:16.215Z,101630.56
2023-03-21T16:25:43.987Z,101631.28
2023-03-21T16:28:16.273Z,101641.69
2023-03-21T16:30:44.013Z,101639.97
2023-03-21T16:33:12.550Z,101629.88
2023-03-21T16:35:40.672Z,101635.09
2023-03-21T16:38:07.864Z,101623.09
2023-03-21T16:40:38.293Z,101630.31
2023-03-21T16:43:06.053Z,101626.47
2023-03-21T16:45:33.400Z,101633.69
2023-03-21T16:48:00.872Z,101630.25
2023-03-21T16:50:37.237Z,101637.50
2023-03-21T16:53:06.850Z,101647.44
2023-03-21T16:55:38.235Z,101646.03
2023-03-21T16:58:06.726Z,101636.78
2023-03-21T17:00:38.309Z,101639.66
2023-03-21T17:03:19.339Z,101636.03
2023-03-21T17:05:49.363Z,101641.59
2023-03-21T17:08:24.305Z,101628.16
2023-03-21T17:10:59.254Z,101632.53
2023-03-21T17:13:26.552Z,101635.31
2023-03-21T17:16:01.070Z,101629.00
2023-03-21T17:18:31.123Z,101623.38
2023-03-21T17:21:18.428Z,101625.94
2023-03-21T17:23:49.529Z,101628.97
2023-03-21T17:26:24.257Z,101630.41
2023-03-21T17:28:54.178Z,101629.78
2023-03-21T17:31:24.123Z,101630.34
2023-03-21T17:34:06.835Z,101631.25
2023-03-21T17:36:53.484Z,101633.66
2023-03-21T17:39:32.263Z,101630.31
2023-03-21T17:41:59.622Z,101634.31
2023-03-21T17:44:40.433Z,101632.63
2023-03-21T17:47:07.780Z,101637.84
2023-03-21T17:49:34.790Z,101634.72
2023-03-21T17:52:07.334Z,101636.09
2023-03-21T17:54:34.412Z,101635.94
2023-03-21T17:57:01.503Z,101633.50
2023-03-21T17:59:31.074Z,101636.59
2023-03-21T18:01:58.378Z,101636.44
2023-03-21T18:04:28.731Z,101631.66
2023-03-21T18:07:01.798Z,101632.19
2023-03-21T18:09:35.042Z,101631.28
2023-03-21T18:12:11.614Z,101636.81
2023-03-21T18:14:42.545Z,101639.75
2023-03-21T18:17:19.392Z,101633.97
2023-03-21T18:19:47.921Z,101630.69
2023-03-21T18:22:14.999Z,101634.00
2023-03-21T18:24:42.405Z,101636.63
2023-03-21T18:27:10.170Z,101628.56
2023-03-21T18:30:22.890Z,101634.34
2023-03-21T18:32:40.308Z,101633.78
2023-03-21T18:35:08.228Z,101633.44
2023-03-21T18:37:35.580Z,101638.78
2023-03-21T18:40:05.524Z,101642.28
2023-03-21T18:42:36.906Z,101643.56
2023-03-21T18:45:08.114Z,101645.63
2023-03-21T18:47:35.247Z,101635.63
2023-03-21T18:50:16.708Z,101647.94
2023-03-21T18:52:47.543Z,101652.31
2023-03-21T18:55:14.983Z,101647.00
2023-03-21T18:57:43.344Z,101658.16
2023-03-21T19:00:17.373Z,101657.78
2023-03-21T19:02:48.484Z,101655.41
2023-03-21T19:05:19.668Z,101665.75
2023-03-21T19:07:48.116Z,101662.19
2023-03-21T19:10:19.565Z,101675.84
2023-03-21T19:12:54.925Z,101673.94
2023-03-21T19:15:33.084Z,101671.94
2023-03-21T19:20:56.460Z,101676.72
2023-03-21T19:23:23.597Z,101673.13
2023-03-21T19:25:51.603Z,101680.50
2023-03-21T19:28:19.859Z,101679.88
2023-03-21T19:30:50.050Z,101681.34
2023-03-21T19:33:20.242Z,101683.00
2023-03-21T19:35:48.991Z,101682.00
2023-03-21T19:38:19.425Z,101689.78
2023-03-21T19:40:46.957Z,101699.88
2023-03-21T19:43:32.262Z,101695.94
2023-03-21T19:46:03.356Z,101696.19
2023-03-21T19:48:31.010Z,101695.97
2023-03-21T19:51:26.789Z,101689.63
2023-03-21T19:53:52.717Z,101705.25
2023-03-21T19:56:27.320Z,101703.03
2023-03-21T19:58:57.168Z,101705.19
2023-03-21T20:01:25.372Z,101704.31
2023-03-21T20:03:52.852Z,101706.88
2023-03-21T20:06:22.494Z,101710.03
2023-03-21T20:09:34.170Z,101710.88
2023-03-21T20:11:46.735Z,101719.06
2023-03-21T20:14:20.303Z,101716.03
2023-03-21T20:16:49.789Z,101717.78
2023-03-21T20:19:17.517Z,101717.50
2023-03-21T20:21:52.312Z,101720.34
2023-03-21T20:24:22.948Z,101711.28
2023-03-21T20:26:53.776Z,101710.41
2023-03-21T20:32:08.740Z,101711.38
2023-03-21T20:34:37.055Z,101710.59
2023-03-21T20:37:06.170Z,101715.78
2023-03-21T20:39:37.070Z,101704.59
2023-03-21T20:42:05.376Z,101711.66
2023-03-21T20:44:57.749Z,101714.81
2023-03-21T20:47:25.754Z,101718.81
2023-03-21T20:49:57.448Z,101726.03
2023-03-21T20:52:57.442Z,101725.69
2023-03-21T20:55:24.611Z,101735.13
2023-03-21T20:57:54.972Z,101732.81
2023-03-21T21:00:22.509Z,101734.41
2023-03-21T21:02:50.444Z,101735.31
2023-03-21T21:05:35.878Z,101736.19
2023-03-21T21:08:06.734Z,101743.75
2023-03-21T21:11:00.516Z,101740.44
2023-03-21T21:13:26.542Z,101732.38
2023-03-21T21:15:54.547Z,101736.25
2023-03-21T21:18:21.985Z,101728.94
2023-03-21T21:20:56.787Z,101729.94
2023-03-21T21:23:25.562Z,101733.28
2023-03-21T21:25:54.586Z,101739.91
2023-03-21T21:28:23.494Z,101735.63
2023-03-21T21:30:56.147Z,101728.03
2023-03-21T21:33:23.583Z,101723.13
2023-03-21T21:35:56.593Z,101711.78
2023-03-21T21:38:24.033Z,101720.84
2023-03-21T21:40:54.026Z,101730.66
2023-03-21T21:43:21.757Z,101731.09
2023-03-21T21:45:52.066Z,101723.25
2023-03-21T21:48:19.343Z,101723.44
2023-03-21T21:50:48.972Z,101725.50
2023-03-21T21:53:29.469Z,101722.88
2023-03-21T21:56:02.116Z,101727.47
2023-03-21T21:58:29.969Z,101724.22
2023-03-21T22:01:05.477Z,101724.41
2023-03-21T22:03:44.290Z,101723.72
2023-03-21T22:06:11.783Z,101715.88
2023-03-21T22:08:39.441Z,101717.91
2023-03-21T22:11:06.872Z,101707.47
2023-03-21T22:13:36.609Z,101710.06
2023-03-21T22:16:06.692Z,101698.78
2023-03-21T22:18:39.211Z,101703.16
2023-03-21T22:21:07.480Z,101705.84
2023-03-21T22:23:34.854Z,101706.66
2023-03-21T22:26:02.233Z,101706.59
2023-03-21T22:28:29.257Z,101714.59
2023-03-21T22:30:57.597Z,101709.44
2023-03-21T22:33:27.306Z,101700.66
2023-03-21T22:35:56.759Z,101690.19
2023-03-21T22:38:28.179Z,101687.59
2023-03-21T22:40:59.199Z,101684.88
2023-03-21T22:43:30.111Z,101691.84
2023-03-21T22:46:00.232Z,101704.00
2023-03-21T22:48:30.299Z,101704.03
2023-03-21T22:50:59.113Z,101697.94
2023-03-21T22:53:26.442Z,101702.31
2023-03-21T22:55:54.285Z,101706.66
2023-03-21T22:58:26.598Z,101713.63
2023-03-21T23:00:56.765Z,101707.50
2023-03-21T23:03:23.948Z,101711.00
2023-03-21T23:05:51.200Z,101711.00
2023-03-21T23:08:21.931Z,101711.78
2023-03-21T23:10:49.056Z,101708.34
2023-03-21T23:13:16.067Z,101709.16
2023-03-21T23:15:43.616Z,101703.00
2023-03-21T23:18:11.143Z,101703.75
2023-03-21T23:20:42.189Z,101711.63
2023-03-21T23:23:12.336Z,101696.78
2023-03-21T23:25:42.032Z,101703.69
2023-03-21T23:28:12.769Z,101702.03
2023-03-21T23:30:40.321Z,101699.44
2023-03-21T23:33:07.768Z,101699.41
2023-03-21T23:35:38.522Z,101692.38
2023-03-21T23:38:06.144Z,101686.25
2023-03-21T23:40:33.196Z,101678.41
2023-03-21T23:43:03.290Z,101686.25
2023-03-21T23:45:33.325Z,101677.41
2023-03-21T23:48:01.077Z,101680.09
2023-03-21T23:50:33.841Z,101677.50
2023-03-21T23:53:01.073Z,101675.63
2023-03-21T23:55:31.899Z,101669.47
2023-03-21T23:57:59.682Z,101674.69
